Impacts METAR Board
IDs:

KDTW - Detroit Metro/Wayne, MI, US

Updated at: 1300 UTC 16 Sep 2019
Potential Impact None Slight Moderate High
Time 16/01Z 16/02Z 16/03Z 16/04Z 16/05Z 16/06Z 16/07Z 16/08Z 16/09Z 16/10Z 16/11Z 16/12Z 16/13Z
Temp71 71 70 71 69 68 67 67 68 68 68 68 70
Dewpt60 60 61 61 62 62 62 64 63 63 63 63 64
Altim30.05 30.06 30.06 30.06 30.05 30.04 30.04 30.04 30.05 30.05 30.06 30.07 30.08
VIS10 10 10 10 10 10 10 9 9 8 6 8 8
CIG-- 65 45 50 45 85 55 40 35 20 25 40 50
CoverSCTOVCOVCOVCOVCBKNOVCOVCOVCOVCOVCOVCOVC
FltCatVFRVFRVFRVFRVFRVFRVFRVFRVFRMVFRMVFRVFRVFR
WX--------------------HZ----
WDir200000000000036010
WSpd5 0 0 0 0 0 0 0 0 0 0 3 5
WGst-- -- -- -- -- -- -- -- -- -- -- -- --
Raw hourly METARs
KDTW 160053Z 20005KT 10SM FEW035 SCT060 SCT250 22/16 A3005 RMK AO2 SLP175 T02170156
KDTW 160153Z 00000KT 10SM FEW030 BKN065 OVC110 22/16 A3006 RMK AO2 SLP176 T02170156
KDTW 160253Z 00000KT 10SM BKN045 BKN065 OVC110 21/16 A3006 RMK AO2 SLP177 T02110161 53002
KDTW 160353Z 00000KT 10SM BKN050 OVC110 22/16 A3006 RMK AO2 RAB0259E15 SLP176 P0000 T02170161
KDTW 160453Z 00000KT 10SM BKN045 OVC110 21/17 A3005 RMK AO2 SLP171 T02060167 402390150
KDTW 160553Z 00000KT 10SM SCT055 BKN085 BKN220 20/17 A3004 RMK AO2 SLP169 60000 T02000167 10228 20194 58007
KDTW 160653Z 00000KT 10SM BKN055 BKN085 OVC220 19/17 A3004 RMK AO2 SLP171 T01940167
KDTW 160753Z 00000KT 9SM BKN040 BKN075 OVC160 19/18 A3004 RMK AO2 SLP169 T01940178
KDTW 160853Z 00000KT 9SM BKN035 OVC075 20/17 A3005 RMK AO2 SLP172 T02000172 53002
KDTW 160953Z 00000KT 8SM BKN020 OVC035 20/17 A3005 RMK AO2 SLP173 T02000172
KDTW 161053Z 00000KT 6SM HZ BKN025 OVC040 20/17 A3006 RMK AO2 SLP175 T02000172
KDTW 161153Z 36003KT 8SM FEW025 OVC040 20/17 A3007 RMK AO2 SLP180 70008 T02000172 10200 20194 53007
KDTW 161253Z 01005KT 8SM FEW025 OVC050 21/18 A3008 RMK AO2 SLP182 T02110178



Page loaded:  13:13 UTC  |   06:13 AM Pacific  |   07:13 AM Mountain  |   08:13 AM Central  |   09:13 AM Eastern

 

ADVISORIES

FORECASTS

FORECASTS

OBSERVATIONS

USER TOOLS

ABOUT US